This is the latest recevied weather packets stored in our database for station/object KF0FSA. If no packets are shown the sender has not sent any weather packets the latest 1 day(s).
| Time | Temp. | Humidity | Pressure | Rain* | Wind** | Luminosity | Snow |
|---|---|---|---|---|---|---|---|
| 1778071266 | 1.11° C | 71% | 963.7 hPa | 0 mm | - | 173 W/m² | - |
| 1778071057 | 0.56° C | 73% | 963.7 hPa | 0 mm | - | 158 W/m² | - |
| 1778069167 | -1.11° C | 80% | 963.6 hPa | 0 mm | - | 49 W/m² | - |
| 1778068566 | -1.11° C | 81% | 963.7 hPa | 0 mm | - | 36 W/m² | - |
| 1778066158 | -2.22° C | 82% | 963.3 hPa | 0 mm | - | 5 W/m² | - |
| 1778064359 | -2.22° C | 80% | 963.2 hPa | 0 mm | - | 0 W/m² | - |
| 1778064058 | -2.22° C | 81% | 963.1 hPa | 0 mm | - | 0 W/m² | - |
| 1778063758 | -2.22° C | 79% | 963.2 hPa | 0 mm | - | 0 W/m² | - |
| 1778063159 | -1.67° C | 79% | 963 hPa | 0 mm | - | 0 W/m² | - |
| 1778062812 | -1.67° C | 79% | 963.2 hPa | 0 mm | - | 0 W/m² | - |
| 1778062510 | -1.67° C | 78% | 963.2 hPa | 0 mm | - | 0 W/m² | - |
| 1778060103 | -1.11° C | 76% | 962.8 hPa | 0 mm | - | 0 W/m² | - |
| 1778059804 | -1.11° C | 75% | 962.7 hPa | 0 mm | - | 0 W/m² | - |
| 1778059329 | -0.56° C | 74% | 962.8 hPa | 0 mm | - | 0 W/m² | - |
| 1778058601 | -0.56° C | 74% | 962.8 hPa | 0 mm | - | 0 W/m² | - |
| 1778057701 | -0.56° C | 74% | 962.7 hPa | 0 mm | - | 0 W/m² | - |
| 1778057102 | -0.56° C | 72% | 962.6 hPa | 0 mm | - | 0 W/m² | - |
| 1778056199 | 0° C | 70% | 962.5 hPa | 0 mm | - | 0 W/m² | - |
| 1778055898 | 0° C | 70% | 962.4 hPa | 0 mm | - | 0 W/m² | - |
| 1778055599 | -0.56° C | 72% | 962.5 hPa | 0 mm | - | 0 W/m² | - |
| 1778055298 | -0.56° C | 73% | 962.5 hPa | 0 mm | - | 0 W/m² | - |
| 1778054995 | 0° C | 73% | 962.4 hPa | 0 mm | - | 0 W/m² | - |
| 1778054699 | 0° C | 73% | 962.3 hPa | 0 mm | - | 0 W/m² | - |
| 1778054220 | 0.56° C | 71% | 962.2 hPa | 0 mm | - | 0 W/m² | - |
| 1778053920 | 0.56° C | 71% | 962.2 hPa | 0 mm | - | 0 W/m² | - |
* Rain latest hour (hover to see other rain measurements)
** Current wind speed in m/s (hover to see current wind gust speed)